Time;durP1;ratioP1;P1;durP2;ratioP2;P2;SDS_P1;SDS_P2;PMS_P1;PMS_P2;Temp;Humidity;BMP_temperature;BMP_pressure;BME280_temperature;BME280_humidity;BME280_pressure;Samples;Min_cycle;Max_cycle;Signal;HPM_P1;HPM_P2
2023/01/05 00:01:00;;;;;;;;;0.00;0.00;;;;;15.66;100.00;102171.72;5084453;28;45542;-82
2023/01/05 00:03:25;;;;;;;;;0.00;0.00;;;;;15.68;100.00;102163.38;5086318;27;45349;-81
2023/01/05 00:05:51;;;;;;;;;0.00;0.00;;;;;15.67;100.00;102157.03;5087214;28;45243;-81
2023/01/05 00:08:16;;;;;;;;;0.33;0.00;;;;;15.71;100.00;102163.91;5086380;28;45592;-81
2023/01/05 00:24:28;;;;;;;;;0.00;0.00;;;;;15.45;100.00;102144.47;5085713;28;45402;-82
2023/01/05 00:26:53;;;;;;;;;2.00;0.00;;;;;15.54;100.00;102146.38;5075662;27;45557;-82
2023/01/05 00:29:19;;;;;;;;;0.00;0.00;;;;;15.58;100.00;102156.03;5090622;27;45608;-82
2023/01/05 00:31:44;;;;;;;;;2.00;0.33;;;;;15.32;100.00;102152.16;5085509;28;45277;-82
2023/01/05 00:34:09;;;;;;;;;1.00;1.00;;;;;15.26;100.00;102150.00;5086676;27;45188;-82
2023/01/05 00:36:35;;;;;;;;;0.00;0.00;;;;;15.36;100.00;102153.56;5084493;28;45621;-82
2023/01/05 00:39:00;;;;;;;;;0.00;0.00;;;;;15.40;100.00;102159.63;5081555;27;48166;-81
2023/01/05 00:41:25;;;;;;;;;0.00;0.00;;;;;15.52;100.00;102152.97;5105265;27;45175;-82
2023/01/05 00:43:50;;;;;;;;;0.00;0.00;;;;;15.52;100.00;102155.72;5073200;27;45283;-81
2023/01/05 00:46:16;;;;;;;;;0.00;0.00;;;;;15.39;100.00;102163.38;5087800;27;45529;-81
2023/01/05 00:48:41;;;;;;;;;0.67;0.00;;;;;15.27;100.00;102156.34;5104837;27;45459;-82
2023/01/05 00:51:06;;;;;;;;;0.00;0.00;;;;;15.32;100.00;102159.50;5092144;27;45239;-82
2023/01/05 00:53:32;;;;;;;;;0.33;0.00;;;;;15.22;100.00;102167.69;5105755;27;45405;-81
2023/01/05 00:55:58;;;;;;;;;0.67;0.00;;;;;15.22;100.00;102172.31;5080434;27;45610;-82
2023/01/05 00:58:23;;;;;;;;;0.00;0.00;;;;;15.15;100.00;102169.28;5071314;28;46981;-82
2023/01/05 01:00:49;;;;;;;;;0.00;0.00;;;;;15.22;100.00;102175.91;5084934;28;45282;-82
2023/01/05 01:03:14;;;;;;;;;1.00;1.00;;;;;15.16;100.00;102174.63;5085502;28;45754;-82
2023/01/05 01:05:39;;;;;;;;;1.33;0.00;;;;;15.19;100.00;102179.78;5073715;27;45427;-82
2023/01/05 01:08:05;;;;;;;;;0.00;0.00;;;;;14.95;100.00;102167.53;5086882;27;47892;-82
2023/01/05 01:10:30;;;;;;;;;0.00;0.00;;;;;15.02;100.00;102164.09;5080159;28;45806;-82
2023/01/05 01:12:55;;;;;;;;;0.33;0.00;;;;;15.17;100.00;102167.28;5085525;28;45278;-82
2023/01/05 01:15:21;;;;;;;;;0.00;0.00;;;;;15.20;100.00;102165.09;5087334;27;45631;-81
2023/01/05 01:17:47;;;;;;;;;0.00;0.00;;;;;15.08;100.00;102169.00;5087141;27;47565;-81
2023/01/05 01:20:12;;;;;;;;;1.00;0.00;;;;;15.01;100.00;102153.28;5093482;27;45370;-81
2023/01/05 01:22:37;;;;;;;;;3.00;0.00;;;;;15.19;100.00;102160.63;5084790;27;45326;-82
2023/01/05 01:25:03;;;;;;;;;1.00;0.67;;;;;15.14;100.00;102167.56;5085046;28;45365;-81
2023/01/05 01:27:30;;;;;;;;;0.00;0.00;;;;;15.09;100.00;102159.78;5084481;27;45393;-81
2023/01/05 01:29:55;;;;;;;;;1.00;1.00;;;;;15.07;100.00;102155.44;5085309;27;45195;-82
2023/01/05 01:32:23;;;;;;;;;0.00;0.00;;;;;15.06;100.00;102167.41;5091021;27;45450;-82
2023/01/05 01:34:48;;;;;;;;;1.67;1.00;;;;;15.13;100.00;102163.06;5080779;28;45242;-82
2023/01/05 01:37:15;;;;;;;;;0.00;0.00;;;;;15.00;100.00;102162.50;5084879;28;45343;-82
2023/01/05 01:39:40;;;;;;;;;4.00;1.00;;;;;15.07;100.00;102170.00;5098728;27;45419;-82
2023/01/05 01:42:12;;;;;;;;;1.00;1.00;;;;;15.01;100.00;102167.84;5079134;27;45340;-81
2023/01/05 01:44:53;;;;;;;;;2.67;1.00;;;;;15.04;100.00;102167.56;5087706;27;45242;-82
2023/01/05 01:47:43;;;;;;;;;3.67;0.67;;;;;15.01;100.00;102175.19;5073511;27;47138;-81
2023/01/05 01:50:25;;;;;;;;;1.00;0.67;;;;;15.00;100.00;102178.91;5104976;27;45230;-82
2023/01/05 01:52:53;;;;;;;;;1.00;1.00;;;;;15.10;100.00;102174.34;5066885;28;45489;-82
2023/01/05 01:55:20;;;;;;;;;0.00;0.00;;;;;15.07;100.00;102178.22;5080142;27;45238;-82
2023/01/05 01:57:47;;;;;;;;;1.00;0.00;;;;;14.94;100.00;102172.16;5070145;28;47072;-81
2023/01/05 02:00:13;;;;;;;;;1.33;0.33;;;;;14.98;100.00;102176.31;5084499;28;45510;-81
2023/01/05 02:02:40;;;;;;;;;1.67;1.67;;;;;15.08;100.00;102174.47;5075188;27;45330;-82
2023/01/05 02:05:10;;;;;;;;;1.00;1.00;;;;;14.96;100.00;102158.34;5092354;27;45232;-82
2023/01/05 02:07:42;;;;;;;;;0.00;0.00;;;;;15.13;100.00;102179.50;5077597;28;48205;-82
2023/01/05 02:10:08;;;;;;;;;2.00;1.00;;;;;15.16;100.00;102176.50;5065669;28;46009;-82
2023/01/05 02:12:56;;;;;;;;;2.00;0.00;;;;;15.15;100.00;102177.50;5095297;27;45283;-82
2023/01/05 02:15:38;;;;;;;;;3.00;0.00;;;;;15.00;100.00;102181.66;5079600;28;45573;-82
2023/01/05 02:18:43;;;;;;;;;0.67;0.00;;;;;14.97;100.00;102185.56;5100556;27;46433;-82
2023/01/05 02:21:31;;;;;;;;;0.33;0.00;;;;;14.99;100.00;102189.00;5077013;28;45310;-82
2023/01/05 02:24:34;;;;;;;;;1.67;0.67;;;;;14.92;100.00;102195.19;5082883;28;45444;-82
2023/01/05 02:27:38;;;;;;;;;3.00;2.00;;;;;14.72;100.00;102194.28;5083189;28;46291;-82
2023/01/05 02:30:27;;;;;;;;;1.00;0.00;;;;;14.74;100.00;102193.16;5062886;28;46531;-82
2023/01/05 02:33:05;;;;;;;;;0.00;0.00;;;;;14.71;100.00;102200.75;5065750;28;45486;-82
2023/01/05 02:36:09;;;;;;;;;1.00;1.00;;;;;14.77;100.00;102206.53;5064071;28;45243;-82
2023/01/05 02:38:44;;;;;;;;;1.00;1.00;;;;;14.65;100.00;102202.19;5062960;28;45505;-82
2023/01/05 02:41:38;;;;;;;;;1.00;1.00;;;;;14.64;100.00;102205.94;5063439;28;45486;-82
2023/01/05 02:44:07;;;;;;;;;2.00;0.33;;;;;14.62;100.00;102197.00;5061667;28;45398;-82
2023/01/05 02:46:32;;;;;;;;;0.00;0.00;;;;;14.71;100.00;102196.16;5063889;28;45496;-82
2023/01/05 02:49:00;;;;;;;;;2.00;0.00;;;;;14.71;100.00;102187.09;5079303;28;45565;-82
2023/01/05 02:51:34;;;;;;;;;2.00;2.00;;;;;14.61;100.00;102191.69;5079054;28;45948;-82
2023/01/05 02:54:09;;;;;;;;;4.00;2.33;;;;;14.64;100.00;102196.84;5062775;28;45266;-82
2023/01/05 02:56:41;;;;;;;;;2.33;2.00;;;;;14.55;100.00;102179.41;5082551;28;45263;-82
2023/01/05 02:59:16;;;;;;;;;0.00;0.00;;;;;14.32;100.00;102184.19;5064529;28;45259;-82
2023/01/05 03:01:50;;;;;;;;;5.00;2.00;;;;;14.40;100.00;102173.47;5063376;28;45279;-82
2023/01/05 03:04:28;;;;;;;;;1.00;1.00;;;;;14.48;100.00;102180.97;5063076;28;45156;-82
2023/01/05 03:07:03;;;;;;;;;2.00;2.00;;;;;14.44;100.00;102186.88;5080234;28;45245;-82
2023/01/05 03:09:35;;;;;;;;;3.00;2.00;;;;;14.36;100.00;102188.38;5082561;28;45249;-82
2023/01/05 03:15:26;;;;;;;;;0.67;0.67;;;;;14.52;100.00;102196.13;5079970;28;45183;-82
2023/01/05 03:17:55;;;;;;;;;5.67;3.00;;;;;14.47;100.00;102187.44;5066453;28;45511;-82
2023/01/05 03:20:25;;;;;;;;;2.67;1.00;;;;;14.53;100.00;102192.38;5075126;28;45413;-82
2023/01/05 03:37:11;;;;;;;;;4.33;0.67;;;;;14.34;100.00;102197.72;5086334;28;45220;-81
2023/01/05 03:39:41;;;;;;;;;4.00;1.00;;;;;14.40;100.00;102186.25;5086403;27;45350;-81
2023/01/05 03:42:09;;;;;;;;;1.00;1.00;;;;;14.55;100.00;102201.28;5086500;28;45473;-82
2023/01/05 03:44:37;;;;;;;;;6.67;3.00;;;;;14.48;100.00;102200.09;5074865;27;47987;-81
2023/01/05 03:47:02;;;;;;;;;2.00;2.00;;;;;14.65;100.00;102204.94;5092511;27;45289;-82
2023/01/05 03:49:27;;;;;;;;;4.00;1.00;;;;;14.63;100.00;102197.84;5086194;27;45317;-82
2023/01/05 03:51:53;;;;;;;;;1.33;1.33;;;;;14.54;100.00;102205.03;5100093;27;45664;-81
2023/01/05 03:54:18;;;;;;;;;3.00;1.33;;;;;14.55;100.00;102201.28;5106681;27;46634;-81
2023/01/05 03:56:44;;;;;;;;;3.00;1.00;;;;;14.49;100.00;102206.44;5105765;27;45390;-81
2023/01/05 03:59:10;;;;;;;;;4.67;2.00;;;;;14.65;100.00;102204.06;5086272;27;45213;-82
2023/01/05 04:01:35;;;;;;;;;3.67;2.00;;;;;14.53;100.00;102197.84;5086362;28;45207;-82
2023/01/05 04:04:00;;;;;;;;;5.67;1.00;;;;;14.55;100.00;102200.41;5085905;27;46370;-81
2023/01/05 04:06:26;;;;;;;;;3.00;1.67;;;;;14.56;100.00;102202.16;5080893;27;45227;-81
2023/01/05 04:08:51;;;;;;;;;1.67;1.67;;;;;14.66;100.00;102203.06;5085469;28;45213;-82
2023/01/05 04:11:19;;;;;;;;;2.67;2.00;;;;;14.70;100.00;102205.38;5077587;28;45330;-82
2023/01/05 04:13:44;;;;;;;;;3.67;2.67;;;;;14.69;100.00;102192.69;5093153;27;46765;-82
2023/01/05 04:16:10;;;;;;;;;4.00;1.00;;;;;14.74;100.00;102190.41;5106081;27;45345;-82
2023/01/05 04:18:35;;;;;;;;;3.67;1.00;;;;;14.70;100.00;102185.34;5105615;27;45314;-82
2023/01/05 04:21:01;;;;;;;;;3.00;1.00;;;;;14.72;100.00;102186.94;5092120;27;45333;-82
2023/01/05 04:23:26;;;;;;;;;2.00;2.00;;;;;14.83;100.00;102193.31;5067481;28;47129;-81
2023/01/05 04:25:52;;;;;;;;;3.00;1.67;;;;;14.90;100.00;102194.47;5067067;28;45311;-82
2023/01/05 04:28:17;;;;;;;;;2.00;2.00;;;;;14.92;100.00;102193.31;5085708;27;45511;-81
2023/01/05 04:30:43;;;;;;;;;2.00;1.00;;;;;14.99;100.00;102204.56;5086018;27;45432;-82
2023/01/05 04:33:09;;;;;;;;;1.67;1.00;;;;;14.89;100.00;102200.97;5067477;28;47063;-82
2023/01/05 04:35:34;;;;;;;;;1.67;1.00;;;;;14.72;100.00;102197.88;5081066;27;45370;-82
2023/01/05 04:37:59;;;;;;;;;2.00;1.00;;;;;14.77;100.00;102198.31;5086805;27;45431;-82
2023/01/05 04:40:25;;;;;;;;;3.00;3.00;;;;;14.78;100.00;102213.75;5085865;28;45365;-82
2023/01/05 04:42:50;;;;;;;;;4.00;2.00;;;;;14.81;100.00;102204.41;5067229;28;48525;-82
2023/01/05 04:45:16;;;;;;;;;1.00;1.00;;;;;14.93;100.00;102202.41;5085464;27;45258;-82
2023/01/05 04:47:41;;;;;;;;;2.00;2.00;;;;;14.70;100.00;102201.75;5085329;28;45523;-82
2023/01/05 04:50:07;;;;;;;;;5.00;1.00;;;;;14.75;100.00;102197.63;5085911;28;45420;-82
2023/01/05 04:52:32;;;;;;;;;0.33;0.33;;;;;14.71;100.00;102190.69;5086045;27;48197;-82
2023/01/05 04:54:58;;;;;;;;;1.33;1.33;;;;;14.82;100.00;102197.06;5093470;27;45200;-82
2023/01/05 04:57:23;;;;;;;;;1.00;1.00;;;;;14.74;100.00;102195.88;5090642;27;45224;-82
2023/01/05 04:59:48;;;;;;;;;3.67;2.00;;;;;14.76;100.00;102188.38;5086394;27;45364;-81
2023/01/05 05:02:14;;;;;;;;;3.33;2.00;;;;;14.77;100.00;102192.84;5098893;27;45534;-82
2023/01/05 05:04:39;;;;;;;;;0.00;0.00;;;;;14.80;100.00;102187.13;5079206;27;45346;-82
2023/01/05 05:07:05;;;;;;;;;2.00;1.00;;;;;14.73;100.00;102175.00;5087448;27;45386;-81
2023/01/05 05:09:30;;;;;;;;;3.33;1.00;;;;;14.80;100.00;102195.31;5085801;27;45490;-81
2023/01/05 05:11:56;;;;;;;;;4.00;1.33;;;;;14.91;100.00;102187.97;5085563;27;45838;-82
2023/01/05 05:14:21;;;;;;;;;1.33;0.33;;;;;14.90;100.00;102178.06;5085666;28;45307;-81
2023/01/05 05:16:46;;;;;;;;;1.00;0.33;;;;;14.86;100.00;102188.41;5085368;27;45398;-82
2023/01/05 05:19:12;;;;;;;;;1.00;1.00;;;;;14.87;100.00;102184.69;5091968;27;45349;-82
2023/01/05 05:21:37;;;;;;;;;0.00;0.00;;;;;14.89;100.00;102179.06;5091441;27;46695;-81
2023/01/05 05:24:03;;;;;;;;;1.00;1.00;;;;;14.86;100.00;102193.88;5090955;27;45330;-81
2023/01/05 05:26:28;;;;;;;;;3.33;0.00;;;;;14.86;100.00;102191.16;5102701;27;45315;-79
2023/01/05 05:28:53;;;;;;;;;2.67;1.00;;;;;14.71;100.00;102184.34;5072933;28;45347;-81
2023/01/05 05:31:19;;;;;;;;;3.00;1.67;;;;;14.71;100.00;102201.63;5083598;27;46538;-81
2023/01/05 05:33:44;;;;;;;;;0.67;0.00;;;;;14.71;100.00;102196.16;5085489;27;45267;-80
2023/01/05 05:36:09;;;;;;;;;1.00;0.33;;;;;14.86;100.00;102193.88;5084986;28;45795;-82
2023/01/05 05:38:35;;;;;;;;;0.67;0.67;;;;;14.91;100.00;102190.72;5067349;28;45183;-82
2023/01/05 05:41:00;;;;;;;;;0.00;0.00;;;;;14.82;100.00;102191.59;5088364;27;45575;-77
2023/01/05 05:43:25;;;;;;;;;0.00;0.00;;;;;14.84;100.00;102193.16;5087150;27;45238;-78
2023/01/05 05:45:51;;;;;;;;;1.00;1.00;;;;;14.92;100.00;102189.72;5085939;27;45382;-78
2023/01/05 05:48:17;;;;;;;;;3.00;1.67;;;;;14.70;100.00;102207.22;5105189;27;45419;-79
2023/01/05 05:50:43;;;;;;;;;1.00;1.00;;;;;14.67;100.00;102200.19;5104043;27;46805;-78
2023/01/05 05:53:09;;;;;;;;;1.00;1.00;;;;;14.71;100.00;102203.50;5075657;28;45260;-78
2023/01/05 05:55:34;;;;;;;;;3.00;1.00;;;;;14.61;100.00;102200.72;5097143;27;45182;-77
2023/01/05 05:57:59;;;;;;;;;1.33;1.00;;;;;14.77;100.00;102209.28;5092687;27;45349;-78
2023/01/05 06:00:25;;;;;;;;;1.00;1.00;;;;;14.86;100.00;102221.25;5096357;27;47081;-78
2023/01/05 06:02:50;;;;;;;;;1.00;1.00;;;;;14.79;100.00;102223.69;5082156;27;45496;-78
2023/01/05 06:05:15;;;;;;;;;1.67;1.67;;;;;14.63;100.00;102217.88;5081858;27;45342;-78
2023/01/05 06:07:41;;;;;;;;;2.00;1.00;;;;;14.70;100.00;102224.50;5092805;27;45227;-78
2023/01/05 06:10:07;;;;;;;;;2.33;2.33;;;;;14.64;100.00;102222.34;5082125;27;47218;-78
2023/01/05 06:12:32;;;;;;;;;4.67;2.00;;;;;14.77;100.00;102225.69;5085216;27;45901;-78
2023/01/05 06:14:57;;;;;;;;;3.00;1.00;;;;;14.87;100.00;102222.13;5097139;27;45431;-78
2023/01/05 06:17:23;;;;;;;;;2.00;1.00;;;;;14.87;100.00;102227.59;5096590;27;45363;-78
2023/01/05 06:19:48;;;;;;;;;0.00;0.00;;;;;14.83;100.00;102234.38;5080442;27;46871;-78
2023/01/05 06:22:14;;;;;;;;;1.67;1.00;;;;;14.90;100.00;102232.78;5081370;27;45310;-77
2023/01/05 06:24:39;;;;;;;;;1.67;0.67;;;;;14.87;100.00;102235.78;5077079;27;45393;-79
2023/01/05 06:27:04;;;;;;;;;0.00;0.00;;;;;14.92;100.00;102231.63;5073486;28;45435;-79
2023/01/05 06:29:30;;;;;;;;;1.00;1.00;;;;;14.99;100.00;102243.75;5073584;28;46410;-80
2023/01/05 06:31:55;;;;;;;;;2.00;0.00;;;;;15.00;100.00;102250.09;5068842;28;45383;-81
2023/01/05 06:34:21;;;;;;;;;1.67;1.67;;;;;15.00;100.00;102250.94;5073889;28;45446;-80
2023/01/05 06:36:46;;;;;;;;;2.00;2.00;;;;;14.98;100.00;102247.47;5082432;28;45368;-77
2023/01/05 06:39:12;;;;;;;;;0.00;0.00;;;;;15.03;100.00;102245.22;5080611;27;45358;-78
2023/01/05 06:41:37;;;;;;;;;1.00;1.00;;;;;14.97;100.00;102245.78;5082079;27;45384;-78
2023/01/05 06:44:04;;;;;;;;;0.33;0.33;;;;;14.68;100.00;102240.19;5078752;28;45152;-78
2023/01/05 06:46:29;;;;;;;;;2.67;1.33;;;;;14.85;100.00;102249.63;5083277;27;45166;-78
2023/01/05 06:48:55;;;;;;;;;0.67;0.67;;;;;14.81;100.00;102259.13;5076681;28;47819;-78
2023/01/05 06:51:21;;;;;;;;;3.00;1.00;;;;;14.62;100.00;102245.34;5081522;28;45706;-78
2023/01/05 06:53:47;;;;;;;;;0.33;0.33;;;;;14.73;100.00;102259.81;5081540;28;45520;-77
2023/01/05 06:56:12;;;;;;;;;1.00;1.00;;;;;14.83;100.00;102261.72;5083417;27;45329;-79
2023/01/05 06:58:37;;;;;;;;;1.00;0.67;;;;;14.79;100.00;102259.25;5082444;27;47297;-75
2023/01/05 07:01:03;;;;;;;;;1.33;1.00;;;;;14.70;100.00;102254.59;5080397;28;45294;-76
2023/01/05 07:03:28;;;;;;;;;1.67;1.67;;;;;14.74;100.00;102252.47;5078817;27;45227;-77
2023/01/05 07:05:54;;;;;;;;;0.00;0.00;;;;;14.68;100.00;102259.34;5081237;28;45832;-76
2023/01/05 07:08:19;;;;;;;;;2.33;2.00;;;;;14.68;100.00;102263.97;5078490;28;47211;-76
2023/01/05 07:10:44;;;;;;;;;1.67;1.33;;;;;14.72;100.00;102263.56;5079478;27;45223;-77
2023/01/05 07:13:10;;;;;;;;;0.00;0.00;;;;;14.79;100.00;102270.19;5074117;28;45463;-77
2023/01/05 07:15:35;;;;;;;;;1.00;1.00;;;;;14.82;100.00;102270.94;5074667;28;45361;-78
2023/01/05 07:18:01;;;;;;;;;1.00;1.00;;;;;14.79;100.00;102264.72;5067363;28;45578;-77
2023/01/05 07:20:26;;;;;;;;;2.00;2.00;;;;;14.85;100.00;102270.63;5072830;27;45255;-76
2023/01/05 07:22:51;;;;;;;;;2.67;1.00;;;;;14.92;100.00;102256.25;5096532;27;45196;-77
2023/01/05 07:25:17;;;;;;;;;2.00;2.00;;;;;14.99;100.00;102260.16;5076266;27;45498;-77
2023/01/05 07:27:42;;;;;;;;;1.33;1.00;;;;;14.92;100.00;102263.59;5100177;27;46580;-78
2023/01/05 07:30:08;;;;;;;;;3.00;2.00;;;;;14.91;100.00;102261.88;5072312;27;46201;-77
2023/01/05 07:32:34;;;;;;;;;2.00;2.00;;;;;14.91;100.00;102270.06;5093462;27;45238;-77
2023/01/05 07:34:59;;;;;;;;;2.00;1.67;;;;;14.90;100.00;102266.50;5091623;27;45678;-78
2023/01/05 07:37:25;;;;;;;;;1.33;1.00;;;;;14.73;100.00;102262.56;5093503;27;45872;-77
2023/01/05 07:39:50;;;;;;;;;2.00;2.00;;;;;14.78;100.00;102271.19;5091656;27;45568;-77
2023/01/05 07:42:16;;;;;;;;;3.00;2.00;;;;;14.82;100.00;102270.94;5092868;27;45365;-77
2023/01/05 07:44:41;;;;;;;;;1.33;1.33;;;;;14.87;100.00;102271.38;5076784;27;45696;-78
2023/01/05 07:47:06;;;;;;;;;1.67;1.00;;;;;14.87;100.00;102271.38;5081395;27;48184;-78
2023/01/05 07:49:32;;;;;;;;;5.33;2.00;;;;;15.09;100.00;102273.88;5081101;27;45511;-77
2023/01/05 07:51:58;;;;;;;;;4.00;4.00;;;;;15.16;100.00;102275.06;5101139;27;45365;-78
2023/01/05 07:54:23;;;;;;;;;3.00;3.00;;;;;15.06;100.00;102276.88;5093141;27;45476;-78
2023/01/05 07:56:49;;;;;;;;;1.00;1.00;;;;;15.07;100.00;102276.75;5099353;27;45476;-77
2023/01/05 07:59:14;;;;;;;;;3.00;2.00;;;;;15.12;100.00;102279.09;5087332;27;45515;-77
2023/01/05 08:01:39;;;;;;;;;5.00;3.00;;;;;15.10;100.00;102264.66;5105576;27;45757;-76
2023/01/05 08:04:05;;;;;;;;;2.33;1.00;;;;;15.12;100.00;102279.09;5106027;27;45504;-78
2023/01/05 08:06:30;;;;;;;;;1.33;1.33;;;;;15.22;100.00;102274.47;5105170;27;45463;-77
2023/01/05 08:08:56;;;;;;;;;3.33;3.00;;;;;15.13;100.00;102278.06;5105049;27;45219;-77
2023/01/05 08:11:21;;;;;;;;;3.00;3.00;;;;;15.04;100.00;102270.72;5083827;27;45423;-77
2023/01/05 08:14:01;;;;;;;;;1.33;1.33;;;;;15.14;100.00;102288.00;5100848;27;45384;-77
2023/01/05 08:16:30;;;;;;;;;2.00;2.00;;;;;15.18;100.00;102278.53;5093733;27;45444;-77
2023/01/05 08:18:56;;;;;;;;;2.33;2.33;;;;;15.22;100.00;102276.34;5100123;27;45218;-78
2023/01/05 08:21:21;;;;;;;;;2.67;2.00;;;;;15.26;100.00;102281.41;5103377;27;45380;-77
2023/01/05 08:23:48;;;;;;;;;3.00;3.00;;;;;15.33;100.00;102287.19;5090781;27;45524;-78
2023/01/05 08:26:16;;;;;;;;;5.67;2.67;;;;;15.27;100.00;102291.34;5102629;27;46117;-78
2023/01/05 08:28:42;;;;;;;;;4.33;3.00;;;;;15.20;100.00;102291.03;5093618;27;45423;-77
2023/01/05 08:31:15;;;;;;;;;3.67;3.67;;;;;15.24;100.00;102288.91;5074656;27;45448;-77
2023/01/05 08:33:41;;;;;;;;;3.67;2.00;;;;;15.24;100.00;102296.25;5103465;27;47223;-77
2023/01/05 08:36:08;;;;;;;;;3.00;2.00;;;;;15.21;100.00;102286.44;5104679;27;45381;-77
2023/01/05 08:38:34;;;;;;;;;2.33;2.33;;;;;15.23;100.00;102295.38;5084567;27;45658;-77
2023/01/05 08:40:59;;;;;;;;;2.67;2.67;;;;;15.22;100.00;102290.91;5104905;27;45346;-78
2023/01/05 08:43:25;;;;;;;;;4.00;1.00;;;;;15.32;100.00;102293.69;5084466;27;45361;-76
2023/01/05 08:45:50;;;;;;;;;3.00;2.67;;;;;15.40;100.00;102285.63;5102596;27;45401;-76
2023/01/05 08:48:17;;;;;;;;;0.00;0.00;;;;;15.49;100.00;102291.09;5095075;27;45233;-76
2023/01/05 08:50:42;;;;;;;;;1.00;1.00;;;;;15.44;100.00;102289.78;5099740;27;45464;-77
2023/01/05 08:53:08;;;;;;;;;3.00;2.00;;;;;15.49;100.00;102280.13;5077838;27;45424;-76
2023/01/05 08:55:33;;;;;;;;;2.00;2.00;;;;;15.51;100.00;102282.72;5099004;27;45359;-77
2023/01/05 08:57:58;;;;;;;;;4.00;2.00;;;;;15.67;100.00;102290.41;5096364;27;45283;-76
2023/01/05 09:00:24;;;;;;;;;2.00;2.00;;;;;15.47;100.00;102292.25;5100564;27;45825;-78
2023/01/05 09:02:49;;;;;;;;;2.67;2.00;;;;;15.48;100.00;102286.63;5077016;27;45429;-77
2023/01/05 09:05:15;;;;;;;;;1.00;1.00;;;;;15.66;100.00;102291.41;5101361;27;46266;-77
2023/01/05 09:07:40;;;;;;;;;2.33;1.00;;;;;15.65;100.00;102289.69;5094467;27;45329;-77
2023/01/05 09:10:07;;;;;;;;;3.00;2.00;;;;;15.73;100.00;102298.06;5087153;27;46538;-77
2023/01/05 09:12:36;;;;;;;;;2.67;2.00;;;;;15.68;100.00;102292.16;5093687;27;45408;-76
2023/01/05 09:15:02;;;;;;;;;3.00;1.67;;;;;15.59;100.00;102280.16;5097633;27;46163;-77
2023/01/05 09:17:28;;;;;;;;;0.33;0.33;;;;;15.61;100.00;102282.78;5092711;27;45428;-77
2023/01/05 09:19:53;;;;;;;;;1.00;1.00;;;;;15.74;100.00;102288.81;5097502;27;45267;-77
2023/01/05 09:22:19;;;;;;;;;1.00;1.00;;;;;15.62;100.00;102279.91;5091936;27;45382;-77
2023/01/05 09:24:45;;;;;;;;;0.00;0.00;;;;;15.69;100.00;102289.28;5077808;27;46908;-76
2023/01/05 09:27:10;;;;;;;;;1.00;1.00;;;;;15.86;100.00;102287.66;5091385;27;45436;-77
2023/01/05 09:29:35;;;;;;;;;2.00;0.00;;;;;16.01;100.00;102286.19;5077388;27;45449;-78
2023/01/05 09:32:01;;;;;;;;;1.00;1.00;;;;;15.99;100.00;102287.38;5089906;27;45441;-76
2023/01/05 09:34:26;;;;;;;;;0.00;0.00;;;;;15.98;100.00;102297.47;5092322;27;47314;-77
2023/01/05 09:36:52;;;;;;;;;0.67;0.67;;;;;15.89;100.00;102298.34;5096225;27;45380;-78
2023/01/05 09:39:17;;;;;;;;;1.00;1.00;;;;;15.73;100.00;102292.56;5090521;27;45558;-78
2023/01/05 09:41:46;;;;;;;;;1.00;1.00;;;;;15.93;100.00;102300.63;5094035;27;45389;-78
2023/01/05 09:44:30;;;;;;;;;4.33;1.00;;;;;16.02;100.00;102292.56;5091884;27;46200;-78
2023/01/05 09:47:03;;;;;;;;;1.33;1.00;;;;;16.06;100.00;102299.50;5079896;27;45257;-75
2023/01/05 09:49:31;;;;;;;;;0.00;0.00;;;;;16.01;100.00;102299.91;5083392;27;45340;-75
2023/01/05 09:52:02;;;;;;;;;1.00;1.00;;;;;16.19;100.00;102300.91;5103837;27;45358;-75
2023/01/05 09:54:32;;;;;;;;;1.00;1.00;;;;;16.04;100.00;102302.38;5097192;27;45353;-76
2023/01/05 09:56:58;;;;;;;;;0.33;0.33;;;;;16.23;100.00;102301.47;5084019;27;45495;-76
2023/01/05 09:59:29;;;;;;;;;1.00;1.00;;;;;16.51;100.00;102305.16;5082152;27;45396;-76
2023/01/05 10:01:59;;;;;;;;;2.00;1.00;;;;;16.52;100.00;102295.88;5075328;27;45464;-77
2023/01/05 10:04:28;;;;;;;;;1.00;1.00;;;;;16.63;100.00;102304.84;5100405;27;45425;-76
2023/01/05 10:07:07;;;;;;;;;1.67;1.00;;;;;16.62;100.00;102299.50;5092378;27;45318;-77
2023/01/05 10:09:38;;;;;;;;;1.00;1.00;;;;;16.61;100.00;102297.78;5075977;27;45358;-77
2023/01/05 10:15:20;;;;;;;;;0.00;0.00;;;;;16.59;100.00;102308.00;5098370;27;45740;-77
2023/01/05 10:17:46;;;;;;;;;1.00;1.00;;;;;16.43;100.00;102308.66;5080829;27;45357;-76
2023/01/05 10:20:43;;;;;;;;;1.00;1.00;;;;;16.39;100.00;102317.31;5094196;27;45421;-76
2023/01/05 10:23:18;;;;;;;;;2.00;2.00;;;;;16.43;100.00;102307.78;5091746;27;45448;-77
2023/01/05 10:25:48;;;;;;;;;1.33;1.00;;;;;16.44;100.00;102295.81;5101318;27;45790;-77
2023/01/05 10:28:25;;;;;;;;;1.67;1.67;;;;;16.44;100.00;102299.38;5091989;27;45357;-76
2023/01/05 10:30:54;;;;;;;;;1.33;1.00;;;;;16.51;100.00;102306.00;5084745;27;45399;-77
2023/01/05 10:33:38;;;;;;;;;1.67;1.67;;;;;16.53;100.00;102305.84;5091804;27;45288;-77
2023/01/05 10:36:29;;;;;;;;;1.33;1.33;;;;;16.63;100.00;102304.00;5077216;27;46994;-77
2023/01/05 10:39:33;;;;;;;;;2.00;2.00;;;;;16.65;100.00;102302.84;5088856;27;45408;-76
2023/01/05 10:42:11;;;;;;;;;5.00;3.33;;;;;16.63;100.00;102304.00;5095241;27;45336;-76
2023/01/05 10:44:42;;;;;;;;;1.00;1.00;;;;;16.83;100.00;102296.53;5084351;27;45800;-77
2023/01/05 10:47:09;;;;;;;;;4.67;3.33;;;;;16.77;100.00;102276.06;5102708;27;45428;-77
2023/01/05 10:49:36;;;;;;;;;3.00;1.33;;;;;16.78;100.00;102296.13;5094897;27;45538;-77
2023/01/05 10:52:02;;;;;;;;;1.00;1.00;;;;;16.86;100.00;102286.13;5082826;27;45274;-77
2023/01/05 10:54:42;;;;;;;;;3.00;3.00;;;;;16.83;100.00;102291.91;5102320;27;45522;-77
2023/01/05 10:57:29;;;;;;;;;1.00;1.00;;;;;16.81;100.00;102288.44;5097324;27;46458;-77
2023/01/05 10:59:55;;;;;;;;;3.33;3.33;;;;;16.67;100.00;102286.19;5074627;27;45320;-78
2023/01/05 11:02:20;;;;;;;;;3.67;1.67;;;;;16.67;100.00;102273.34;5073814;27;45435;-77
2023/01/05 11:04:47;;;;;;;;;2.00;2.00;;;;;16.49;100.00;102269.66;5097505;27;45617;-77
2023/01/05 11:07:13;;;;;;;;;2.67;2.00;;;;;16.68;100.00;102282.44;5090748;27;46588;-78
2023/01/05 11:09:40;;;;;;;;;1.00;1.00;;;;;16.93;100.00;102267.16;5090353;27;45151;-78
2023/01/05 11:12:14;;;;;;;;;3.00;3.00;;;;;16.95;100.00;102265.97;5094813;27;45520;-78
2023/01/05 11:14:46;;;;;;;;;2.00;2.00;;;;;16.94;100.00;102266.16;5099202;27;45445;-78
2023/01/05 11:17:18;;;;;;;;;1.00;1.00;;;;;16.96;100.00;102255.84;5092562;27;46331;-78
2023/01/05 11:19:48;;;;;;;;;2.00;2.00;;;;;16.82;100.00;102257.22;5096800;27;45278;-79
2023/01/05 11:22:39;;;;;;;;;2.33;1.00;;;;;16.49;100.00;102258.66;5068750;28;45249;-78
2023/01/05 11:25:24;;;;;;;;;1.00;1.00;;;;;16.61;100.00;102262.09;5056990;28;45526;-77
2023/01/05 11:28:09;;;;;;;;;3.00;2.00;;;;;16.50;100.00;102256.78;5054786;28;45596;-78
2023/01/05 11:30:36;;;;;;;;;4.00;1.00;;;;;16.57;100.00;102250.56;5060820;28;45591;-77
2023/01/05 11:33:02;;;;;;;;;3.00;2.00;;;;;16.85;100.00;102245.97;5054829;28;45402;-77
2023/01/05 11:35:35;;;;;;;;;4.00;4.00;;;;;16.92;100.00;102238.84;5061673;28;45666;-78
2023/01/05 11:38:00;;;;;;;;;4.00;4.00;;;;;16.84;100.00;102246.97;5059235;28;45166;-78
2023/01/05 11:40:33;;;;;;;;;2.67;1.33;;;;;16.89;100.00;102250.13;5063813;28;45364;-78
2023/01/05 11:42:59;;;;;;;;;3.00;3.00;;;;;16.93;100.00;102243.31;5053786;28;45322;-77
2023/01/05 11:45:38;;;;;;;;;2.67;2.67;;;;;16.98;100.00;102237.34;5061382;28;45530;-76
2023/01/05 11:48:07;;;;;;;;;1.33;1.33;;;;;17.01;100.00;102253.53;5057259;28;46868;-77
2023/01/05 11:50:47;;;;;;;;;3.00;3.00;;;;;16.89;100.00;102232.78;5062116;28;45445;-76
2023/01/05 11:53:32;;;;;;;;;2.33;2.33;;;;;16.95;100.00;102245.91;5059723;28;45213;-78
2023/01/05 11:56:00;;;;;;;;;3.33;2.00;;;;;16.89;100.00;102241.88;5059570;28;45508;-76
2023/01/05 11:58:44;;;;;;;;;3.67;2.00;;;;;16.79;100.00;102238.34;5058283;28;45622;-78